Time;durP1;ratioP1;P1;durP2;ratioP2;P2;SDS_P1;SDS_P2;PMS_P1;PMS_P2;Temp;Humidity;BMP_temperature;BMP_pressure;BME280_temperature;BME280_humidity;BME280_pressure;Samples;Min_cycle;Max_cycle;Signal;HPM_P1;HPM_P2
2022/10/08 00:00:08;;;;;;;8.55;4.10;;;16.40;99.90;;;16.80;80.41;101464.75;5035941;28;20045;-76
2022/10/08 00:02:39;;;;;;;8.23;3.80;;;16.40;99.90;;;16.56;80.93;101427.84;5035220;28;20049;-75
2022/10/08 00:05:09;;;;;;;7.07;4.10;;;16.50;99.90;;;16.89;81.40;101477.06;5034337;28;20141;-75
2022/10/08 00:07:41;;;;;;;8.80;4.00;;;16.50;99.90;;;16.88;82.10;101476.16;5035028;28;20052;-75
2022/10/08 00:10:09;;;;;;;8.32;3.38;;;16.50;99.90;;;16.64;82.17;101427.69;5050309;28;20144;-75
2022/10/08 00:12:38;;;;;;;11.85;4.00;;;16.50;99.90;;;16.95;82.37;101467.13;5035101;28;20095;-75
2022/10/08 00:15:08;;;;;;;6.90;3.75;;;16.50;99.90;;;16.89;82.40;101461.91;5035434;28;20045;-75
2022/10/08 00:17:36;;;;;;;8.38;4.40;;;16.50;99.90;;;16.97;82.60;101475.09;5035048;28;20037;-75
2022/10/08 00:20:06;;;;;;;11.90;3.72;;;16.50;99.90;;;16.95;82.75;101476.94;5035015;28;20459;-75
2022/10/08 00:22:34;;;;;;;7.72;4.15;;;16.50;99.90;;;16.93;82.93;101476.97;5034873;28;20060;-75
2022/10/08 00:25:04;;;;;;;8.75;3.78;;;16.50;99.90;;;16.92;83.03;101472.50;5034606;28;20049;-75
2022/10/08 00:27:33;;;;;;;9.23;3.92;;;16.50;99.90;;;16.58;83.03;101406.44;5034367;28;20124;-75
2022/10/08 00:30:04;;;;;;;8.45;3.72;;;16.50;99.90;;;16.63;82.90;101415.22;5034533;28;20045;-76
2022/10/08 00:32:32;;;;;;;8.75;4.40;;;16.50;99.90;;;16.83;83.02;101462.03;5049914;28;20479;-75
2022/10/08 00:35:01;;;;;;;12.95;4.07;;;16.50;99.90;;;16.84;82.96;101468.25;5034661;28;20045;-76
2022/10/08 00:37:31;;;;;;;;;;;16.50;99.90;;;16.88;82.96;101497.53;5033333;28;20107;-75
2022/10/08 00:40:00;;;;;;;11.50;4.53;;;16.50;99.90;;;16.81;83.05;101463.84;5034398;28;19921;-76
2022/10/08 00:42:30;;;;;;;11.32;4.30;;;16.40;99.90;;;16.83;82.92;101462.03;5033868;28;20080;-75
2022/10/08 00:45:00;;;;;;;13.15;4.20;;;16.50;99.90;;;16.78;83.00;101458.53;5033400;28;20099;-75
2022/10/08 00:47:40;;;;;;;11.02;3.92;;;16.50;99.90;;;16.27;82.83;101366.09;5034172;28;20140;-75
2022/10/08 00:50:16;;;;;;;10.98;3.88;;;16.40;99.90;;;16.91;83.14;101478.78;5034173;28;20095;-75
2022/10/08 00:52:49;;;;;;;9.55;4.30;;;16.50;99.90;;;16.65;82.83;101434.78;5034628;28;20124;-75
2022/10/08 00:55:22;;;;;;;15.82;4.63;;;16.50;99.90;;;16.83;82.60;101462.03;5034085;28;20100;-75
2022/10/08 00:57:52;;;;;;;11.23;4.30;;;16.50;99.90;;;16.44;82.42;101388.00;5034300;28;20050;-75
2022/10/08 01:00:24;;;;;;;11.18;4.88;;;16.50;99.90;;;16.66;82.24;101418.75;5034143;28;20045;-75
2022/10/08 01:02:54;;;;;;;11.57;4.72;;;16.50;99.90;;;16.49;82.13;101391.47;5034290;28;20128;-75
2022/10/08 01:05:30;;;;;;;14.60;4.55;;;16.50;99.90;;;16.92;82.18;101466.28;5033777;28;20041;-75
2022/10/08 01:08:08;;;;;;;13.70;4.22;;;16.50;99.90;;;16.79;82.08;101438.94;5034089;28;20037;-75
2022/10/08 01:10:45;;;;;;;12.70;4.40;;;16.60;99.90;;;16.71;81.97;101426.66;5033814;28;20449;-75
2022/10/08 01:13:29;;;;;;;10.63;4.22;;;16.50;99.90;;;17.03;81.70;101483.00;5033578;28;20124;-75
2022/10/08 01:16:10;;;;;;;15.07;4.88;;;16.60;99.90;;;16.77;81.44;101438.09;5033953;28;20073;-75
2022/10/08 01:18:44;;;;;;;;;;;16.60;99.90;;;16.41;81.20;101393.41;5034046;28;20042;-75
2022/10/08 01:21:16;;;;;;;13.98;4.43;;;16.50;99.90;;;16.69;81.11;101450.72;5033582;28;19971;-75
2022/10/08 01:24:09;;;;;;;12.07;4.70;;;16.40;99.90;;;16.81;80.72;101479.88;5034157;28;20053;-75
2022/10/08 01:26:52;;;;;;;11.07;4.00;;;16.40;99.90;;;16.65;80.50;101488.22;5033657;28;20110;-75
2022/10/08 01:29:28;;;;;;;13.15;4.22;;;16.30;99.90;;;16.29;80.53;101439.03;5033480;28;20049;-75
2022/10/08 01:32:06;;;;;;;17.27;4.53;;;16.10;99.90;;;16.48;80.04;101485.88;5033520;28;20045;-75
2022/10/08 01:34:40;;;;;;;10.05;4.40;;;16.00;99.90;;;16.08;80.69;101459.00;5049002;28;20376;-75
2022/10/08 01:37:20;;;;;;;17.23;5.03;;;15.90;99.90;;;16.20;80.59;101463.22;5033424;28;20049;-75
2022/10/08 01:39:53;;;;;;;12.52;4.30;;;15.80;99.90;;;16.14;80.24;101453.53;5033377;28;20038;-75
2022/10/08 01:42:24;;;;;;;13.07;4.63;;;15.90;99.90;;;16.27;79.50;101483.56;5033335;28;20103;-75
2022/10/08 01:45:00;;;;;;;16.50;5.43;;;15.90;99.90;;;15.90;79.47;101415.72;5032774;28;20069;-75
2022/10/08 01:47:31;;;;;;;14.00;4.78;;;15.90;99.90;;;16.27;79.24;101480.91;5033941;28;20051;-75
2022/10/08 01:50:07;;;;;;;15.23;4.38;;;15.90;99.90;;;16.25;79.42;101482.72;5048552;28;20045;-75
2022/10/08 01:52:42;;;;;;;13.85;4.95;;;15.80;99.90;;;16.31;79.27;101538.69;5033091;28;20108;-75
2022/10/08 01:55:19;;;;;;;16.20;5.13;;;15.90;99.90;;;15.94;78.81;101415.66;5033436;28;20045;-75
2022/10/08 01:57:49;;;;;;;10.98;4.10;;;15.90;99.90;;;16.21;79.01;101491.69;5033205;28;20064;-75
2022/10/08 02:00:19;;;;;;;16.70;5.23;;;15.90;99.90;;;16.01;79.74;101488.44;5033514;28;20037;-75
2022/10/08 02:02:48;;;;;;;11.98;4.20;;;15.70;99.90;;;16.08;79.42;101490.13;5033073;28;20657;-75
2022/10/08 02:05:16;;;;;;;16.55;5.40;;;15.70;99.90;;;15.69;79.75;101427.63;5033211;28;20042;-75
2022/10/08 02:07:46;;;;;;;19.52;4.63;;;15.60;99.90;;;15.37;79.57;101360.56;5033278;28;20044;-75
2022/10/08 02:10:18;;;;;;;11.45;4.95;;;15.60;99.90;;;15.39;78.91;101423.63;5031981;28;20045;-75
2022/10/08 02:12:46;;;;;;;11.05;4.60;;;15.70;99.90;;;16.05;78.67;101490.16;5032930;28;20120;-75
2022/10/08 02:15:20;;;;;;;13.43;4.40;;;15.70;99.90;;;16.06;78.65;101489.28;5032868;28;20056;-75
2022/10/08 02:17:57;;;;;;;19.05;4.80;;;15.70;99.90;;;16.13;78.26;101499.81;5032839;28;20541;-75
2022/10/08 02:20:35;;;;;;;12.85;4.63;;;15.70;99.90;;;16.11;77.65;101496.28;5032973;28;20152;-75
2022/10/08 02:23:11;;;;;;;12.65;4.50;;;15.80;99.90;;;15.92;77.47;101448.59;5033073;28;20461;-75
2022/10/08 02:25:47;;;;;;;15.57;4.82;;;15.80;99.90;;;16.13;77.32;101499.81;5032841;28;20049;-75
2022/10/08 02:28:23;;;;;;;14.68;4.88;;;15.80;99.90;;;16.18;76.97;101495.28;5032816;28;20061;-75
2022/10/08 02:30:58;;;;;;;13.63;4.82;;;15.80;99.90;;;16.03;77.62;101503.53;5031803;28;20145;-75
2022/10/08 02:33:33;;;;;;;14.05;5.03;;;15.70;99.90;;;16.05;77.49;101508.84;5033019;28;20473;-75
2022/10/08 02:36:04;;;;;;;13.93;4.85;;;15.70;99.90;;;16.12;76.68;101518.53;5032782;28;20046;-75
2022/10/08 02:38:39;;;;;;;13.55;5.00;;;15.70;99.90;;;16.24;76.42;101503.19;5033037;28;20148;-76
2022/10/08 02:41:09;;;;;;;15.68;4.90;;;15.80;99.90;;;15.75;76.97;101445.31;5032716;28;20046;-75
2022/10/08 02:43:45;;;;;;;11.65;5.15;;;15.70;99.90;;;16.00;77.00;101492.03;5032986;28;20132;-75
2022/10/08 02:46:20;;;;;;;15.68;5.25;;;15.70;99.90;;;16.15;77.14;101499.78;5032573;28;20072;-75
2022/10/08 02:48:56;;;;;;;17.52;4.95;;;15.70;99.90;;;15.33;78.28;101399.72;5032944;28;20403;-75
2022/10/08 02:51:27;;;;;;;13.27;4.50;;;15.60;99.90;;;15.41;78.79;101422.75;5032747;28;20132;-75
2022/10/08 02:54:01;;;;;;;15.75;5.45;;;15.50;99.90;;;15.63;78.66;101466.84;5032739;28;20045;-75
2022/10/08 02:56:34;;;;;;;14.27;5.32;;;15.40;99.90;;;15.41;78.46;101442.25;5033098;28;20046;-75
2022/10/08 02:59:09;;;;;;;13.25;4.53;;;15.40;99.90;;;15.52;78.61;101490.16;5036272;28;20399;-75
2022/10/08 03:01:44;;;;;;;12.70;4.43;;;15.30;99.90;;;15.66;78.85;101507.69;5036483;28;20037;-75
2022/10/08 03:04:20;;;;;;;15.30;5.28;;;15.20;99.90;;;15.57;78.38;101507.84;5036115;28;20052;-75
2022/10/08 03:06:49;;;;;;;13.85;4.50;;;15.30;99.90;;;15.56;79.09;101532.75;5035123;28;20141;-75
2022/10/08 03:09:20;;;;;;;18.80;4.83;;;15.20;99.90;;;15.38;79.08;101516.97;5036397;28;20418;-75
2022/10/08 03:11:49;;;;;;;12.68;5.15;;;15.10;99.90;;;15.41;79.33;101508.91;5035254;28;20050;-75
2022/10/08 03:14:21;;;;;;;13.27;4.43;;;15.10;99.90;;;15.22;79.57;101470.97;5035758;28;20041;-75
2022/10/08 03:16:51;;;;;;;16.20;4.60;;;15.10;99.90;;;15.69;78.37;101517.44;5036092;28;20119;-75
2022/10/08 03:19:20;;;;;;;11.75;5.10;;;15.30;99.90;;;15.39;77.82;101444.06;5036143;28;20034;-75
2022/10/08 03:21:53;;;;;;;10.85;4.70;;;15.50;99.90;;;15.80;78.01;101528.81;5034717;28;20060;-75
2022/10/08 03:24:22;;;;;;;11.95;4.57;;;15.50;99.90;;;15.86;77.43;101534.97;5034964;28;20051;-74
2022/10/08 03:26:55;;;;;;;9.70;4.18;;;15.50;99.90;;;15.41;77.54;101462.72;5034398;28;20071;-74
2022/10/08 03:29:24;;;;;;;14.02;4.45;;;15.40;99.90;;;15.55;77.71;101492.75;5035671;28;20041;-74
2022/10/08 03:31:54;;;;;;;16.63;5.13;;;15.40;99.90;;;15.85;77.32;101543.00;5035593;28;20054;-74
2022/10/08 03:34:24;;;;;;;9.15;4.50;;;15.50;99.90;;;15.84;77.11;101530.53;5035439;28;20445;-74
2022/10/08 03:36:53;;;;;;;13.00;4.97;;;15.50;99.90;;;15.98;76.28;101549.91;5034573;28;20057;-75
2022/10/08 03:39:21;;;;;;;13.15;4.45;;;15.60;99.90;;;15.96;76.02;101543.69;5034150;28;20037;-74
2022/10/08 03:41:49;;;;;;;12.20;4.93;;;15.60;99.90;;;15.85;75.60;101557.19;5035452;28;20034;-74
2022/10/08 03:44:18;;;;;;;14.18;4.60;;;15.50;99.90;;;15.68;75.21;101558.38;5035635;28;20041;-75
2022/10/08 03:46:46;;;;;;;13.90;4.93;;;15.40;99.90;;;15.65;74.45;101559.28;5035319;28;20452;-74
2022/10/08 03:49:16;;;;;;;11.18;3.67;;;15.30;99.90;;;15.30;74.11;101514.41;5035253;28;20038;-74
2022/10/08 03:51:44;;;;;;;11.27;4.10;;;15.20;99.90;;;15.55;74.03;101551.41;5035307;28;20124;-74
2022/10/08 03:54:13;;;;;;;13.60;4.28;;;15.20;99.90;;;15.18;74.18;101497.69;5035368;28;20041;-75
2022/10/08 03:56:41;;;;;;;10.27;4.05;;;15.20;99.90;;;15.57;74.52;101570.94;5035425;28;20041;-74
2022/10/08 03:59:10;;;;;;;12.43;4.38;;;15.30;99.90;;;15.06;75.19;101509.38;5034009;28;20053;-74
2022/10/08 04:01:38;;;;;;;13.65;4.63;;;15.10;99.90;;;14.71;75.49;101457.44;5035328;28;20041;-74
2022/10/08 04:04:07;;;;;;;9.20;4.57;;;15.10;99.90;;;14.99;74.86;101518.34;5034937;28;20041;-74
2022/10/08 04:06:36;;;;;;;11.13;3.90;;;15.00;99.90;;;14.93;74.42;101514.88;5034872;28;20099;-75
2022/10/08 04:09:05;;;;;;;10.38;4.22;;;15.00;99.90;;;15.08;74.24;101595.53;5035020;28;20120;-75
2022/10/08 04:11:38;;;;;;;10.45;4.45;;;14.90;99.90;;;15.22;73.32;101582.03;5035082;28;20495;-75
2022/10/08 04:14:07;;;;;;;10.18;4.32;;;14.90;99.90;;;15.31;72.30;101589.94;5034769;28;20041;-75
2022/10/08 04:16:36;;;;;;;11.75;4.30;;;14.90;99.90;;;15.16;72.34;101583.00;5034760;28;20049;-75
2022/10/08 04:19:04;;;;;;;12.27;4.78;;;14.90;99.90;;;14.33;71.96;101511.09;5034793;28;20041;-74
2022/10/08 04:21:32;;;;;;;12.90;4.20;;;14.80;99.90;;;14.91;71.93;101560.19;5034748;28;20111;-75
2022/10/08 04:24:02;;;;;;;14.75;4.97;;;14.70;99.90;;;14.98;72.42;101595.66;5034980;28;20072;-75
2022/10/08 04:26:31;;;;;;;15.27;4.40;;;14.70;99.90;;;14.91;72.24;101613.47;5034667;28;20057;-74
2022/10/08 04:28:59;;;;;;;11.00;4.18;;;14.70;99.90;;;14.93;72.42;101587.69;5034589;28;20107;-75
2022/10/08 04:31:28;;;;;;;13.75;4.38;;;14.70;99.90;;;14.04;72.29;101433.28;5033458;28;20144;-75
2022/10/08 04:33:57;;;;;;;14.38;4.45;;;14.60;99.90;;;14.96;71.85;101595.66;5033398;28;20057;-75
2022/10/08 04:36:25;;;;;;;13.60;4.18;;;14.60;99.90;;;14.33;72.34;101516.41;5034618;28;20068;-75
2022/10/08 04:38:56;;;;;;;9.52;3.78;;;14.60;99.90;;;14.78;71.83;101571.88;5034604;28;20129;-75
2022/10/08 04:41:28;;;;;;;13.93;4.28;;;14.60;99.90;;;13.32;71.89;101342.66;5034295;28;20103;-75
2022/10/08 04:44:00;;;;;;;11.23;4.17;;;14.50;99.90;;;14.73;71.55;101588.81;5034226;28;20091;-75
2022/10/08 04:46:29;;;;;;;15.07;4.32;;;14.50;99.90;;;14.93;70.90;101603.69;5049768;28;20049;-75
2022/10/08 04:48:59;;;;;;;7.82;4.05;;;14.60;99.90;;;15.03;70.07;101625.78;5034096;28;20042;-75
2022/10/08 04:51:28;;;;;;;10.15;4.07;;;14.60;99.90;;;14.68;71.11;101585.28;5034016;28;20373;-74
2022/10/08 04:53:57;;;;;;;13.68;4.68;;;14.60;99.90;;;14.83;71.59;101617.97;5034008;28;20045;-75
2022/10/08 04:56:29;;;;;;;14.68;4.53;;;14.50;99.90;;;14.90;71.75;101593.06;5034016;28;20140;-75
2022/10/08 04:58:59;;;;;;;11.18;3.90;;;14.60;99.90;;;14.90;72.36;101626.81;5034285;28;20041;-75
2022/10/08 05:01:29;;;;;;;9.95;4.03;;;14.60;99.90;;;14.61;72.80;101579.16;5033840;28;20064;-75
2022/10/08 05:03:59;;;;;;;11.10;4.63;;;14.50;99.90;;;14.95;73.08;101627.63;5034443;28;20041;-74
2022/10/08 05:06:31;;;;;;;11.43;4.40;;;14.60;99.90;;;14.84;72.65;101614.44;5034365;28;20096;-75
2022/10/08 05:09:01;;;;;;;14.15;4.57;;;14.60;99.90;;;14.77;72.72;101618.03;5033876;28;20418;-74
2022/10/08 05:11:32;;;;;;;15.57;4.18;;;14.60;99.90;;;14.93;71.40;101619.66;5032763;28;20045;-74
2022/10/08 05:14:01;;;;;;;10.70;3.92;;;14.60;99.90;;;14.59;70.76;101561.44;5033771;28;20095;-75
2022/10/08 05:16:30;;;;;;;7.70;3.90;;;14.70;99.90;;;14.59;70.51;101562.31;5049181;28;20359;-74
2022/10/08 05:18:59;;;;;;;7.63;3.78;;;14.70;99.90;;;15.00;70.27;101642.66;5033263;28;20072;-74
2022/10/08 05:21:30;;;;;;;12.35;4.28;;;14.70;99.90;;;15.06;69.91;101652.41;5033270;28;20384;-74
2022/10/08 05:24:02;;;;;;;7.53;3.78;;;14.70;99.90;;;14.87;70.37;101624.16;5032578;28;20053;-78
2022/10/08 05:26:35;;;;;;;14.68;4.60;;;14.80;99.90;;;14.86;70.06;101602.00;5032287;28;20053;-79
2022/10/08 05:29:24;;;;;;;7.85;4.18;;;14.80;99.90;;;14.89;69.81;101615.28;5033379;28;20041;-77
2022/10/08 05:31:52;;;;;;;6.90;3.85;;;14.70;99.90;;;15.08;69.54;101666.56;5048914;28;20390;-73
2022/10/08 05:34:21;;;;;;;10.35;3.97;;;14.80;99.90;;;15.01;70.32;101651.56;5033385;28;20045;-77
2022/10/08 05:36:49;;;;;;;13.15;4.50;;;14.70;99.90;;;14.97;70.55;101661.38;5033373;28;20041;-78
2022/10/08 05:39:18;;;;;;;8.85;3.95;;;14.60;99.90;;;15.10;70.08;101665.66;5033586;28;20037;-77
2022/10/08 05:41:48;;;;;;;9.10;4.00;;;14.70;99.90;;;15.07;69.90;101659.50;5033236;28;20486;-71
2022/10/08 05:44:16;;;;;;;9.83;4.13;;;14.80;99.90;;;14.90;70.39;101658.78;5033502;28;20095;-71
2022/10/08 05:46:45;;;;;;;15.30;4.05;;;14.70;99.90;;;14.88;71.28;101680.13;5033433;28;20045;-79
2022/10/08 05:49:21;;;;;;;12.88;4.22;;;14.50;99.90;;;14.83;71.22;101662.38;5033148;28;20045;-73
2022/10/08 05:51:51;;;;;;;12.10;4.28;;;14.60;99.90;;;14.95;70.82;101670.25;5033430;28;20065;-70
2022/10/08 05:54:20;;;;;;;12.48;4.03;;;14.60;99.90;;;14.92;70.67;101692.50;5048411;28;20495;-74
2022/10/08 05:56:53;;;;;;;10.68;3.83;;;14.60;99.90;;;14.89;70.68;101695.19;5031989;28;20053;-72
2022/10/08 05:59:24;;;;;;;10.77;4.35;;;14.60;99.90;;;14.99;70.24;101696.88;5032055;28;20054;-71
2022/10/08 06:01:52;;;;;;;9.65;4.05;;;14.70;99.90;;;15.08;70.35;101698.56;5033194;28;20045;-70
2022/10/08 06:04:21;;;;;;;9.13;4.10;;;14.70;99.90;;;14.91;70.03;101690.72;5032865;28;20046;-75
2022/10/08 06:06:49;;;;;;;10.93;3.75;;;14.70;99.90;;;14.87;69.86;101712.97;5033203;28;20041;-75
2022/10/08 06:09:20;;;;;;;11.02;3.88;;;14.60;99.90;;;14.95;69.17;101708.47;5033219;28;20041;-74
2022/10/08 06:11:49;;;;;;;;;;;14.60;99.90;;;14.55;69.56;101648.44;5033355;28;20041;-73
2022/10/08 06:14:19;;;;;;;11.35;4.22;;;14.60;99.90;;;14.86;70.32;101724.53;5033052;28;20019;-74
2022/10/08 06:16:47;;;;;;;13.93;3.97;;;14.60;99.90;;;14.89;70.45;101728.94;5032772;28;20096;-74
2022/10/08 06:19:16;;;;;;;11.15;4.03;;;14.60;99.90;;;14.89;70.20;101724.50;5048589;28;20045;-75
2022/10/08 06:21:45;;;;;;;12.48;4.20;;;14.60;99.90;;;14.60;70.03;101702.53;5033083;28;20046;-75
2022/10/08 06:24:13;;;;;;;13.73;3.97;;;14.50;99.90;;;14.43;70.23;101673.38;5032780;28;20069;-74
2022/10/08 06:26:43;;;;;;;12.00;3.88;;;14.50;99.90;;;14.57;69.94;101701.66;5032905;28;20136;-74
2022/10/08 06:29:17;;;;;;;13.75;4.57;;;14.50;99.90;;;14.85;70.12;101753.81;5033005;28;20111;-74
2022/10/08 06:31:46;;;;;;;12.52;3.95;;;14.50;99.90;;;14.75;69.70;101728.19;5035100;28;20042;-72
2022/10/08 06:34:15;;;;;;;11.15;4.85;;;14.60;99.90;;;14.78;69.98;101763.66;5036549;28;20128;-73
2022/10/08 06:36:44;;;;;;;12.85;4.22;;;14.50;99.90;;;14.39;69.97;101694.69;5035505;28;20096;-70
2022/10/08 06:39:16;;;;;;;11.27;4.60;;;14.50;99.90;;;14.61;70.42;101746.03;5036599;28;20044;-71
2022/10/08 06:41:45;;;;;;;12.02;3.63;;;14.50;99.90;;;14.78;70.07;101776.97;5036844;28;20045;-71
2022/10/08 06:44:17;;;;;;;12.32;4.75;;;14.50;99.90;;;14.34;70.05;101744.44;5035457;28;20048;-72
2022/10/08 06:46:46;;;;;;;11.27;4.18;;;14.40;99.90;;;14.54;69.90;101757.63;5036491;28;20124;-71
2022/10/08 06:49:17;;;;;;;11.23;3.90;;;14.40;99.90;;;14.46;70.05;101754.97;5036670;28;20462;-70
2022/10/08 06:51:45;;;;;;;11.88;4.38;;;14.40;99.90;;;14.88;69.89;101818.66;5036625;28;20060;-70
2022/10/08 06:54:14;;;;;;;8.50;3.97;;;14.50;99.90;;;15.08;69.13;101763.41;5036468;28;20387;-71
2022/10/08 06:56:42;;;;;;;10.38;3.88;;;14.90;99.90;;;14.86;68.78;101705.88;5035080;28;20042;-70
2022/10/08 06:59:11;;;;;;;14.50;4.72;;;15.10;99.90;;;15.70;67.82;101792.16;5035123;28;20041;-71
2022/10/08 07:01:41;;;;;;;9.27;3.97;;;15.40;99.90;;;16.06;67.13;101812.22;5036706;28;20045;-71
2022/10/08 07:04:11;;;;;;;11.00;4.50;;;15.60;99.90;;;16.17;64.51;101807.63;5036236;28;20441;-71
2022/10/08 07:06:40;;;;;;;10.45;3.92;;;15.90;99.90;;;16.40;63.32;101810.91;5036006;28;20037;-70
2022/10/08 07:09:09;;;;;;;10.48;4.00;;;16.10;99.90;;;16.46;62.41;101794.78;5036015;28;20140;-70
2022/10/08 07:11:39;;;;;;;9.65;3.95;;;16.20;99.90;;;16.68;62.56;101819.47;5035947;28;20124;-70
2022/10/08 07:14:07;;;;;;;11.47;4.23;;;16.40;99.90;;;16.38;62.18;101786.00;5036103;28;20065;-70
2022/10/08 07:16:35;;;;;;;11.63;4.05;;;16.40;99.90;;;16.79;61.35;101828.19;5035724;28;20406;-70
2022/10/08 07:19:05;;;;;;;12.73;4.18;;;16.50;99.90;;;16.82;60.97;101796.97;5036266;28;20048;-71
2022/10/08 07:21:34;;;;;;;10.23;4.07;;;16.70;99.90;;;17.06;60.57;101817.97;5034803;28;20049;-73
2022/10/08 07:24:02;;;;;;;11.13;4.00;;;16.80;99.90;;;17.40;60.70;101842.34;5034745;28;20487;-72
2022/10/08 07:26:34;;;;;;;9.82;4.13;;;17.00;99.90;;;17.65;60.40;101841.06;5050810;28;20157;-71
2022/10/08 07:29:05;;;;;;;10.00;4.20;;;17.30;99.90;;;17.63;58.96;101842.91;5035625;28;20048;-71
2022/10/08 07:31:37;;;;;;;11.32;3.67;;;17.30;99.90;;;17.69;59.27;101848.13;5036277;28;20037;-71
2022/10/08 07:34:11;;;;;;;11.80;4.30;;;17.40;99.90;;;17.70;59.62;101841.88;5035919;28;20482;-71
2022/10/08 07:36:40;;;;;;;13.88;4.60;;;17.50;99.90;;;18.17;59.82;101861.50;5035761;28;20076;-72
2022/10/08 07:39:12;;;;;;;11.00;4.00;;;17.70;99.90;;;18.23;59.20;101856.94;5035790;28;20493;-71
2022/10/08 07:41:41;;;;;;;15.23;4.93;;;17.90;99.90;;;17.93;59.89;101846.78;5035480;28;20095;-71
2022/10/08 07:44:12;;;;;;;13.52;4.47;;;17.80;99.90;;;17.69;59.27;101832.06;5034588;28;20041;-71
2022/10/08 07:46:44;;;;;;;9.95;4.25;;;17.70;99.90;;;17.79;59.25;101854.19;5035252;28;20396;-71
2022/10/08 07:49:15;;;;;;;10.32;4.20;;;17.60;99.90;;;17.65;59.41;101825.00;5035351;28;20044;-70
2022/10/08 07:51:45;;;;;;;11.05;4.43;;;17.60;99.90;;;16.05;58.76;101482.16;5035496;28;20049;-72
2022/10/08 07:54:17;;;;;;;12.02;4.68;;;18.00;99.90;;;18.08;58.29;101841.13;5035652;28;20548;-71
2022/10/08 07:56:46;;;;;;;12.65;4.03;;;18.10;99.90;;;18.15;55.14;101891.00;5035392;28;20108;-72
2022/10/08 07:59:15;;;;;;;11.18;4.10;;;17.90;99.90;;;17.85;56.00;101856.75;5034945;28;20377;-69
2022/10/08 08:01:44;;;;;;;10.43;3.88;;;17.80;99.90;;;16.05;56.04;101520.41;5034962;28;20037;-68
2022/10/08 08:04:14;;;;;;;15.73;4.20;;;17.90;99.90;;;18.41;55.79;101907.44;5035438;28;20470;-70
2022/10/08 08:06:48;;;;;;;10.65;3.67;;;18.10;99.90;;;18.11;56.00;101867.88;5034981;28;20068;-71
2022/10/08 08:09:17;;;;;;;10.65;4.45;;;18.10;99.90;;;18.09;56.89;101912.56;5034750;28;20041;-71
2022/10/08 08:11:46;;;;;;;9.98;3.70;;;17.90;99.90;;;17.81;58.62;101917.50;5034939;28;20410;-68
2022/10/08 08:14:15;;;;;;;11.95;3.97;;;17.50;99.90;;;17.50;58.96;101880.59;5034979;28;20037;-69
2022/10/08 08:16:43;;;;;;;10.55;4.57;;;17.50;99.90;;;16.66;61.12;101872.03;5033649;28;20037;-69
2022/10/08 08:19:12;;;;;;;10.90;4.35;;;16.90;99.90;;;16.58;61.33;101840.06;5034903;28;20041;-70
2022/10/08 08:21:41;;;;;;;9.80;3.92;;;16.70;99.90;;;16.60;61.83;101890.81;5034811;28;20061;-69
2022/10/08 08:24:12;;;;;;;16.23;4.83;;;16.50;99.90;;;16.55;61.48;101951.44;5034854;28;20125;-69
2022/10/08 08:26:42;;;;;;;;;;;16.30;99.90;;;16.55;62.35;101938.09;5034649;28;20049;-70
2022/10/08 08:29:14;;;;;;;11.43;4.93;;;16.30;99.90;;;16.85;61.65;101951.06;5050140;28;20361;-69
2022/10/08 08:31:44;;;;;;;13.20;3.88;;;16.50;99.90;;;17.12;60.13;101916.81;5034523;28;20038;-69
2022/10/08 08:34:16;;;;;;;11.30;4.40;;;16.90;99.90;;;17.31;59.03;101920.09;5034468;28;20479;-70
2022/10/08 08:36:49;;;;;;;8.40;3.85;;;17.10;99.90;;;17.74;58.67;101947.97;5034190;28;20483;-69
2022/10/08 08:39:20;;;;;;;8.98;3.90;;;17.40;99.90;;;17.77;58.84;101941.66;5033171;28;20513;-70
2022/10/08 08:42:06;;;;;;;;;;;17.60;99.90;;;17.04;57.63;101789.50;5034556;28;20075;-70
2022/10/08 08:44:38;;;;;;;10.50;4.05;;;17.70;99.90;;;17.74;57.48;101949.75;5034071;28;19975;-70
2022/10/08 08:47:17;;;;;;;8.45;3.75;;;17.60;99.90;;;17.64;58.08;101964.19;5033954;28;20513;-69
2022/10/08 08:49:51;;;;;;;9.35;3.83;;;17.50;99.90;;;17.75;57.57;101954.22;5034118;28;20527;-70
2022/10/08 08:52:24;;;;;;;8.90;3.80;;;17.70;99.90;;;18.00;57.92;101977.00;5034269;28;20383;-70
2022/10/08 08:54:53;;;;;;;10.75;4.15;;;17.70;99.90;;;17.55;58.52;101892.09;5033018;28;20144;-69
2022/10/08 08:57:36;;;;;;;8.05;3.53;;;17.80;99.90;;;17.96;57.92;101988.66;5034074;28;20120;-69
2022/10/08 09:00:12;;;;;;;10.88;3.70;;;17.60;99.90;;;17.95;57.61;101981.53;5034198;28;20395;-69
2022/10/08 09:02:52;;;;;;;9.57;4.07;;;17.60;99.90;;;17.80;57.71;101936.28;5033883;28;20549;-70
2022/10/08 09:05:23;;;;;;;9.70;3.93;;;17.80;99.90;;;17.93;57.78;101970.84;5033777;28;20067;-70
2022/10/08 09:08:04;;;;;;;9.88;3.67;;;17.80;99.90;;;17.83;58.55;102005.81;5033855;28;20096;-70
2022/10/08 09:10:42;;;;;;;8.63;3.90;;;17.60;99.90;;;17.56;58.91;101976.81;5033849;28;20041;-70
2022/10/08 09:13:18;;;;;;;8.82;3.80;;;17.50;99.90;;;18.08;59.29;102006.31;5032690;28;20145;-70
2022/10/08 09:15:46;;;;;;;12.57;4.45;;;17.70;99.90;;;18.29;59.10;102022.88;5032752;28;20049;-70
2022/10/08 09:18:16;;;;;;;12.65;3.92;;;17.90;99.90;;;18.44;58.00;102017.31;5033700;28;20048;-70
2022/10/08 09:20:45;;;;;;;13.02;3.97;;;18.10;99.90;;;18.28;57.91;101975.59;5033406;28;20037;-70
2022/10/08 09:23:17;;;;;;;11.80;3.97;;;18.20;99.90;;;18.84;58.60;102012.03;5032475;28;20073;-70
2022/10/08 09:25:53;;;;;;;13.18;4.43;;;18.50;99.90;;;18.54;56.20;102034.09;5033848;28;20048;-69
2022/10/08 09:28:43;;;;;;;14.73;4.50;;;18.30;99.90;;;17.75;58.13;101991.69;5032383;28;20045;-70
2022/10/08 09:31:21;;;;;;;11.68;4.10;;;17.90;99.90;;;17.46;59.04;102026.84;5033642;28;20077;-70
2022/10/08 09:34:04;;;;;;;13.27;4.70;;;17.40;99.90;;;17.09;60.98;102031.81;5033720;28;20128;-70
2022/10/08 09:36:36;;;;;;;7.82;3.80;;;17.00;99.90;;;17.34;60.32;102043.09;5033337;28;20061;-70
2022/10/08 09:39:18;;;;;;;10.50;3.78;;;17.00;99.90;;;17.40;60.00;101993.97;5032325;28;20120;-70
2022/10/08 09:42:09;;;;;;;12.05;4.10;;;17.20;99.90;;;17.55;60.34;102050.88;5032388;28;20050;-71
2022/10/08 09:44:41;;;;;;;18.85;4.45;;;17.20;99.90;;;17.63;61.12;102040.03;5032034;28;20566;-70
2022/10/08 09:47:13;;;;;;;9.68;3.83;;;17.30;99.90;;;17.53;61.44;102049.09;5033445;28;20445;-70
2022/10/08 09:49:48;;;;;;;13.32;4.55;;;17.20;99.90;;;17.38;61.40;102050.16;5032272;28;20049;-69
2022/10/08 09:52:22;;;;;;;11.35;3.80;;;17.10;99.90;;;17.01;62.00;102043.53;5048808;28;20045;-70
2022/10/08 09:54:57;;;;;;;13.55;4.10;;;16.90;99.90;;;17.20;62.51;102060.22;5033791;28;20387;-69
2022/10/08 09:57:26;;;;;;;24.42;10.82;;;16.90;99.90;;;17.62;62.37;102063.25;5033426;28;20056;-70
2022/10/08 10:00:00;;;;;;;12.52;6.03;;;17.20;99.90;;;17.50;61.10;102017.06;5033117;28;20456;-68
2022/10/08 10:02:32;;;;;;;14.70;5.10;;;17.40;99.90;;;17.66;59.96;102035.53;5031909;28;20049;-68
2022/10/08 10:05:03;;;;;;;7.15;4.15;;;17.50;99.90;;;17.87;58.97;102067.31;5032833;28;20041;-69
2022/10/08 10:07:41;;;;;;;9.27;3.80;;;17.70;99.90;;;18.14;58.31;102071.34;5048221;28;20463;-63
2022/10/08 10:10:18;;;;;;;7.43;3.95;;;17.80;99.90;;;17.99;58.31;102061.78;5032688;28;20457;-63
2022/10/08 10:12:51;;;;;;;9.10;3.95;;;17.80;99.90;;;17.88;58.46;102041.44;5031791;28;20046;-63
2022/10/08 10:15:23;;;;;;;9.40;3.80;;;17.80;99.90;;;18.30;58.68;102037.16;5032879;28;20038;-64
2022/10/08 10:17:55;;;;;;;13.88;4.43;;;18.10;99.90;;;18.44;57.45;102049.47;5032985;28;20390;-64
2022/10/08 10:20:27;;;;;;;12.15;3.50;;;18.40;99.90;;;18.87;57.11;102087.94;5033079;28;20041;-63
2022/10/08 10:23:01;;;;;;;8.13;3.88;;;18.60;99.90;;;19.42;57.31;102090.44;5031911;28;20049;-62
2022/10/08 10:25:38;;;;;;;10.63;3.97;;;19.00;99.90;;;19.33;55.77;102079.03;5031860;28;20046;-63